EGBB Airport Information

Runway Information
Runway 15 Length 8527 ft width 151 ft
Elevation 305 ft Threshold 1069 ft Heading 148
Runway 33 Length 8527 ft Width 151 ft
Elevation 328 ft Threshold 987 ft Heading 328
Airport Frequencies
Type APP Name APP Frequency 118.05 MHZ
Type ATIS Name ATIS Frequency 136.02 MHZ
Type GND Name GND Frequency 121.8 MHZ
Type TWR Name TWR Frequency 118.3 MHZ
Airport Navaids
Type NDB Name Birmingham Frequency 406 KHZ
Airport Weather Information & NOTAM
ADDS - METARS form results

(0611 UTC 20 February 2019)
Data provider http://aviationweather.gov/metar/data/
 
METAR text: EGBB 200550Z 21007KT 9999 FEW015 08/06 Q1015
Conditions at: EGBB (BIRMINGHAM AIRPO, GB) observed 0550 UTC 20 February 2019
Temperature: 8.0°C (46°F)
Dewpoint: 6.0°C (43°F) [RH = 87%]
Pressure (altimeter): 29.97 inches Hg (1015.0 mb)
Winds: from the SSW (210 degrees) at 8 MPH (7 knots; 3.6 m/s)
Visibility: 6 or more miles (10+ km)
Ceiling: at least 12,000 feet AGL
Clouds: few clouds at 1500 feet AGL
Weather: no significant weather observed at this time

METAR text: EGBB 200520Z 20008KT 9999 FEW045 08/06 Q1015
Conditions at: EGBB (BIRMINGHAM AIRPO, GB) observed 0520 UTC 20 February 2019
Temperature: 8.0°C (46°F)
Dewpoint: 6.0°C (43°F) [RH = 87%]
Pressure (altimeter): 29.97 inches Hg (1015.0 mb)
Winds: from the SSW (200 degrees) at 9 MPH (8 knots; 4.1 m/s)
Visibility: 6 or more miles (10+ km)
Ceiling: at least 12,000 feet AGL
Clouds: few clouds at 4500 feet AGL
Weather: no significant weather observed at this time

Forecast for: EGBB (BIRMINGHAM AIRPO, GB)
Text: TAF EGBB 200500Z 2006/2106 20012KT 9999 FEW030
Forecast period: 0600 UTC 20 February 2019 to 0600 UTC 21 February 2019
Forecast type: FROM: standard forecast or significant change
Winds: from the SSW (200 degrees) at 14 MPH (12 knots; 6.2 m/s)
Visibility: 6 or more miles 10+ km)
Ceiling: at least 12,000 feet AGL
Clouds: few clouds at 3000 feet AGL
Weather: no significant weather forecast for this period
Text: TEMPO 2018/2024 8000 -RA BKN010
Forecast period: 1800 UTC 20 February 2019 to 0000 UTC 21 February 2019
Forecast type: TEMPORARY: The following changes expected for less than half the time period
Visibility: 5 miles (8 km)
Ceiling: 1000 feet AGL
Clouds: broken clouds at 1000 feet AGL
Weather: -RA  (light rain)
Text: PROB30
Forecast period: 0000 to 0600 UTC 21 February 2019
Forecast type: TEMPORARY: The following changes expected for less than half the time period
Visibility: missing
Ceiling: 1000 feet AGL
Clouds: broken clouds at 1000 feet AGL
Weather: no significant weather forecast for this period